Buffalo Hart, Illinois
Current Conditions -  °F | °C
As of 11:52 AM on Wednesday 26 Nov 2014 (Local Time) from KSPI Reporting Station
Overcast Overcast  
Wind Chill: 23°   Ceiling: 5000
Heat Index: 33°   Visibility: 10mi
Dew Point: 28°   Wind: 16mph
Humidity: 82%   Direction: 120°ESE
Pressure: 30.04"   Gusts: NA
Location:  39.8448°N, 89.3474°W
Report Text: KSPI 261752Z 12014KT 10SM BKN050 OVC060 01/M02 A3004 RMK AO2 SLP178 T00061022 10011 21033 58018
Loading
Personal Weather Stations






























Interactive Weather Map New forecast layout! Learn more

10-Day Weather Forecast

Advertisements
Track Severe Weather on mobile